createdAt,value
2022-10-04T00:01:25.675Z,7.63
2022-10-04T00:04:09.285Z,5.82
2022-10-04T00:06:43.403Z,4.55
2022-10-04T00:09:18.085Z,6.43
2022-10-04T00:11:47.663Z,5.38
2022-10-04T00:14:38.988Z,7.43
2022-10-04T00:17:23.370Z,5.35
2022-10-04T00:19:52.470Z,4.50
2022-10-04T00:22:26.690Z,4.22
2022-10-04T00:25:13.836Z,6.95
2022-10-04T00:28:27.170Z,5.25
2022-10-04T00:31:18.909Z,4.45
2022-10-04T00:33:46.053Z,4.32
2022-10-04T00:36:41.969Z,6.80
2022-10-04T00:39:09.158Z,5.85
2022-10-04T00:41:48.531Z,4.13
2022-10-04T00:44:26.701Z,3.95
2022-10-04T00:46:55.661Z,4.43
2022-10-04T00:49:28.534Z,4.30
2022-10-04T00:52:07.693Z,6.30
2022-10-04T00:54:38.833Z,5.07
2022-10-04T00:57:10.823Z,7.22
2022-10-04T00:59:37.881Z,6.97
2022-10-04T01:02:13.752Z,9.57
2022-10-04T01:05:06.990Z,8.38
2022-10-04T01:07:37.750Z,8.48
2022-10-04T01:10:13.314Z,7.25
2022-10-04T01:13:00.577Z,10.27
2022-10-04T01:15:43.314Z,6.85
2022-10-04T01:18:15.395Z,6.65
2022-10-04T01:20:48.773Z,7.32
2022-10-04T01:23:34.209Z,7.07
2022-10-04T01:26:03.156Z,5.07
2022-10-04T01:28:30.523Z,6.30
2022-10-04T01:30:57.830Z,5.88
2022-10-04T01:33:25.562Z,5.80
2022-10-04T01:35:53.440Z,6.40
2022-10-04T01:38:20.697Z,5.25
2022-10-04T01:40:54.291Z,7.35
2022-10-04T01:43:29.194Z,6.88
2022-10-04T01:46:10.278Z,4.50
2022-10-04T01:48:42.358Z,5.47
2022-10-04T01:51:23.843Z,5.85
2022-10-04T01:53:58.998Z,6.28
2022-10-04T01:56:34.580Z,3.80
2022-10-04T01:59:07.650Z,6.00
2022-10-04T02:01:52.389Z,5.22
2022-10-04T02:04:28.978Z,4.93
2022-10-04T02:06:59.334Z,5.28
2022-10-04T02:09:32.157Z,4.63
2022-10-04T02:12:00.136Z,4.55
2022-10-04T02:14:34.630Z,4.78
2022-10-04T02:17:06.179Z,4.38
2022-10-04T02:19:36.572Z,3.38
2022-10-04T02:22:05.680Z,4.15
2022-10-04T02:24:38.909Z,3.50
2022-10-04T02:27:06.468Z,3.58
2022-10-04T02:29:33.978Z,4.20
2022-10-04T02:32:22.132Z,6.45
2022-10-04T02:34:50.663Z,3.00
2022-10-04T02:37:18.565Z,4.63
2022-10-04T02:40:07.938Z,3.53
2022-10-04T02:43:00.464Z,2.47
2022-10-04T02:45:40.029Z,3.13
2022-10-04T02:48:35.335Z,2.63
2022-10-04T02:51:25.832Z,3.97
2022-10-04T02:54:02.910Z,4.35
2022-10-04T02:56:32.477Z,3.72
2022-10-04T02:59:07.371Z,3.67
2022-10-04T03:01:44.160Z,2.83
2022-10-04T03:04:15.210Z,5.28
2022-10-04T03:06:47.848Z,2.25
2022-10-04T03:09:16.763Z,5.60
2022-10-04T03:11:44.563Z,2.97
2022-10-04T03:14:19.303Z,2.90
2022-10-04T03:16:50.048Z,2.80
2022-10-04T03:19:19.425Z,3.38
2022-10-04T03:21:49.600Z,4.07
2022-10-04T03:24:20.998Z,2.63
2022-10-04T03:26:55.404Z,4.97
2022-10-04T03:29:25.121Z,4.10
2022-10-04T03:31:58.458Z,4.35
2022-10-04T03:34:33.735Z,6.78
2022-10-04T03:37:03.055Z,7.47
2022-10-04T03:39:33.959Z,4.88
2022-10-04T03:42:23.186Z,3.15
2022-10-04T03:44:54.961Z,3.40
2022-10-04T03:47:26.764Z,5.82
2022-10-04T03:49:55.860Z,4.03
2022-10-04T03:52:26.799Z,4.03
2022-10-04T03:54:59.489Z,4.65
2022-10-04T03:57:27.261Z,5.20
2022-10-04T03:59:55.205Z,2.78
2022-10-04T04:02:45.865Z,6.03
2022-10-04T04:05:19.517Z,3.67
2022-10-04T04:08:05.097Z,3.05
2022-10-04T04:10:38.973Z,3.63
2022-10-04T04:13:24.450Z,4.03
2022-10-04T04:15:54.412Z,4.85
2022-10-04T04:18:32.230Z,4.38
2022-10-04T04:21:02.469Z,3.85
2022-10-04T04:23:35.678Z,3.58
2022-10-04T04:26:27.542Z,3.03
2022-10-04T04:29:03.620Z,3.20
2022-10-04T04:31:42.988Z,5.07
2022-10-04T04:34:23.243Z,3.17
2022-10-04T04:36:51.240Z,3.45
2022-10-04T04:39:41.102Z,5.50
2022-10-04T04:42:13.571Z,6.25
2022-10-04T04:45:07.064Z,3.55
2022-10-04T04:47:40.457Z,2.80
2022-10-04T04:50:25.564Z,4.40
2022-10-04T04:53:13.302Z,3.72
2022-10-04T04:56:03.448Z,4.43
2022-10-04T04:58:38.350Z,2.30
2022-10-04T05:01:15.914Z,2.83
2022-10-04T05:03:43.154Z,3.67
2022-10-04T05:06:26.914Z,3.15
2022-10-04T05:08:54.208Z,2.05
2022-10-04T05:11:26.203Z,3.10
2022-10-04T05:14:10.026Z,3.35
2022-10-04T05:16:45.669Z,4.60
2022-10-04T05:19:37.963Z,4.65
2022-10-04T05:22:11.933Z,4.85
2022-10-04T05:24:43.294Z,2.97
2022-10-04T05:27:31.138Z,3.72
2022-10-04T05:30:07.949Z,7.57
2022-10-04T05:33:01.834Z,7.50
2022-10-04T05:35:30.762Z,4.15
2022-10-04T05:38:28.054Z,5.20
2022-10-04T05:41:09.102Z,6.75
2022-10-04T05:43:46.905Z,5.85
2022-10-04T05:46:20.760Z,5.63
2022-10-04T05:48:54.258Z,6.10
2022-10-04T05:51:21.531Z,5.53
2022-10-04T05:53:50.347Z,6.82
2022-10-04T05:56:49.986Z,5.10
2022-10-04T06:00:09.812Z,6.00
2022-10-04T06:02:56.267Z,5.13
2022-10-04T06:05:32.380Z,3.92
2022-10-04T06:08:14.312Z,4.20
2022-10-04T06:10:50.196Z,5.55
2022-10-04T06:13:26.643Z,5.00
2022-10-04T06:16:03.390Z,4.00
2022-10-04T06:18:36.637Z,4.75
2022-10-04T06:21:18.958Z,4.95
2022-10-04T06:24:11.241Z,4.82
2022-10-04T06:26:47.630Z,8.65
2022-10-04T06:29:23.533Z,8.80
2022-10-04T06:32:10.489Z,7.05
2022-10-04T06:34:59.282Z,5.18
2022-10-04T06:38:03.468Z,5.63
2022-10-04T06:41:02.023Z,6.55
2022-10-04T06:43:41.094Z,9.10
2022-10-04T06:46:08.393Z,4.90
2022-10-04T06:48:44.424Z,5.72
2022-10-04T06:51:43.951Z,6.05
2022-10-04T06:54:43.552Z,5.07
2022-10-04T06:57:32.530Z,9.27
2022-10-04T07:00:02.860Z,4.13
2022-10-04T07:03:03.661Z,6.30
2022-10-04T07:05:52.873Z,5.93
2022-10-04T07:08:34.350Z,7.47
2022-10-04T07:11:14.777Z,4.80
2022-10-04T07:13:49.993Z,6.05
2022-10-04T07:16:17.101Z,5.15
2022-10-04T07:18:56.446Z,8.13
2022-10-04T07:21:28.186Z,10.27
2022-10-04T07:24:04.127Z,4.78
2022-10-04T07:26:45.412Z,6.05
2022-10-04T07:29:22.550Z,6.65
2022-10-04T07:32:03.912Z,5.45
2022-10-04T07:34:37.222Z,5.82
2022-10-04T07:37:11.384Z,10.02
2022-10-04T07:40:10.047Z,8.15
2022-10-04T07:42:53.537Z,3.80
2022-10-04T07:45:32.808Z,14.10
2022-10-04T07:48:10.605Z,5.05
2022-10-04T07:50:56.445Z,8.70
2022-10-04T07:53:30.833Z,8.23
2022-10-04T07:56:06.958Z,10.98
2022-10-04T07:59:00.284Z,6.25
2022-10-04T08:02:13.140Z,8.93
2022-10-04T08:04:55.625Z,11.70
2022-10-04T08:07:49.792Z,11.98
2022-10-04T08:10:37.011Z,10.10
2022-10-04T08:13:22.505Z,13.90
2022-10-04T08:15:52.907Z,9.20
2022-10-04T08:18:48.064Z,9.95
2022-10-04T08:21:21.778Z,16.00
2022-10-04T08:24:01.291Z,11.67
2022-10-04T08:26:46.282Z,10.35
2022-10-04T08:29:40.898Z,7.40
2022-10-04T08:32:49.356Z,8.47
2022-10-04T08:35:36.638Z,9.95
2022-10-04T08:38:18.518Z,9.85
2022-10-04T08:41:16.394Z,11.73
2022-10-04T08:44:23.396Z,9.45
2022-10-04T08:47:44.896Z,8.35
2022-10-04T08:50:33.965Z,8.82
2022-10-04T08:53:20.805Z,9.82
2022-10-04T08:56:14.237Z,9.77
2022-10-04T08:59:15.918Z,6.72
2022-10-04T09:02:15.142Z,14.30
2022-10-04T09:04:42.279Z,9.52
2022-10-04T09:07:27.013Z,10.32
2022-10-04T09:10:29.200Z,6.65
2022-10-04T09:13:25.684Z,11.43
2022-10-04T09:15:57.113Z,11.23
2022-10-04T09:18:46.196Z,11.20
2022-10-04T09:21:28.022Z,16.00
2022-10-04T09:24:17.090Z,16.35
2022-10-04T09:26:47.841Z,7.47
2022-10-04T09:29:21.849Z,11.02
2022-10-04T09:31:58.269Z,9.68
2022-10-04T09:34:43.766Z,13.52
2022-10-04T09:37:14.033Z,15.63
2022-10-04T09:40:09.818Z,16.88
2022-10-04T09:42:46.513Z,15.98
2022-10-04T09:45:28.982Z,16.40
2022-10-04T09:48:34.026Z,15.70
2022-10-04T09:51:13.743Z,13.50
2022-10-04T09:53:54.206Z,19.60
2022-10-04T09:56:36.677Z,13.68
2022-10-04T09:59:22.367Z,12.35
2022-10-04T10:02:29.318Z,15.95
2022-10-04T10:05:28.904Z,14.50
2022-10-04T10:08:08.587Z,14.45
2022-10-04T10:11:35.786Z,10.82
2022-10-04T10:14:17.749Z,12.30
2022-10-04T10:17:06.388Z,11.43
2022-10-04T10:19:48.844Z,12.50
2022-10-04T10:22:29.208Z,14.15
2022-10-04T10:24:59.774Z,15.57
2022-10-04T10:27:48.788Z,12.68
2022-10-04T10:30:22.006Z,13.65
2022-10-04T10:33:17.386Z,12.02
2022-10-04T10:38:42.502Z,10.77
2022-10-04T10:41:31.542Z,12.05
2022-10-04T10:44:11.937Z,15.32
2022-10-04T10:46:47.447Z,9.75
2022-10-04T10:49:36.430Z,11.88
2022-10-04T10:52:42.700Z,16.38
2022-10-04T10:55:22.831Z,12.18
2022-10-04T10:58:41.044Z,11.45
2022-10-04T11:01:41.015Z,10.05
2022-10-04T11:04:35.965Z,9.90
2022-10-04T11:07:24.281Z,9.73
2022-10-04T11:10:23.355Z,10.20
2022-10-04T11:13:15.279Z,9.52
2022-10-04T11:16:08.010Z,16.77
2022-10-04T11:19:10.996Z,11.32
2022-10-04T11:22:06.993Z,12.70
2022-10-04T11:24:52.868Z,9.45
2022-10-04T11:27:49.155Z,17.10
2022-10-04T11:30:27.160Z,10.20
2022-10-04T11:33:03.447Z,16.05
2022-10-04T11:36:08.313Z,14.45
2022-10-04T11:38:52.725Z,15.87
2022-10-04T11:41:50.427Z,12.27
2022-10-04T11:44:31.698Z,19.88
2022-10-04T11:47:23.403Z,19.20
2022-10-04T11:50:26.649Z,11.30
2022-10-04T11:53:39.721Z,12.35
2022-10-04T11:56:44.881Z,11.15
2022-10-04T11:59:18.282Z,11.55
2022-10-04T12:02:07.271Z,7.53
2022-10-04T12:04:54.470Z,10.70
2022-10-04T12:07:34.603Z,7.63
2022-10-04T12:10:10.993Z,13.05
2022-10-04T12:13:12.579Z,11.45
2022-10-04T12:15:52.229Z,9.07
2022-10-04T12:18:47.709Z,7.72
2022-10-04T12:21:46.239Z,10.23
2022-10-04T12:24:33.656Z,8.15
2022-10-04T12:27:27.954Z,7.68
2022-10-04T12:30:26.604Z,7.57
2022-10-04T12:33:18.002Z,7.65
2022-10-04T12:36:15.999Z,4.30
2022-10-04T12:39:17.404Z,6.55
2022-10-04T12:41:51.833Z,6.82
2022-10-04T12:44:32.263Z,6.40
2022-10-04T12:47:38.182Z,5.70
2022-10-04T12:50:30.542Z,4.75
2022-10-04T12:53:14.883Z,4.47
2022-10-04T12:56:06.366Z,5.93
2022-10-04T12:58:39.553Z,5.47
2022-10-04T13:01:43.206Z,5.22
2022-10-04T13:04:34.308Z,4.53
2022-10-04T13:07:29.544Z,4.10
2022-10-04T13:10:30.944Z,3.97
2022-10-04T13:13:09.219Z,4.50
2022-10-04T13:19:22.640Z,7.53
2022-10-04T13:21:57.191Z,6.25
2022-10-04T13:24:56.534Z,5.47
2022-10-04T13:27:38.900Z,5.45
2022-10-04T13:30:23.736Z,7.07
2022-10-04T13:32:57.186Z,6.75
2022-10-04T13:35:58.360Z,5.57
2022-10-04T13:38:35.800Z,5.18
2022-10-04T13:41:24.356Z,3.63
2022-10-04T13:44:04.086Z,2.60
2022-10-04T13:46:56.767Z,4.25
2022-10-04T13:49:33.597Z,3.53
2022-10-04T13:52:43.904Z,4.10
2022-10-04T13:55:51.218Z,2.55
2022-10-04T13:58:39.678Z,3.08
2022-10-04T14:01:25.235Z,4.47
2022-10-04T14:03:55.691Z,4.25
2022-10-04T14:06:54.373Z,5.35
2022-10-04T14:09:24.142Z,4.18
2022-10-04T14:12:17.514Z,3.92
2022-10-04T14:15:04.884Z,4.50
2022-10-04T14:18:13.315Z,5.97
2022-10-04T14:21:04.252Z,4.40
2022-10-04T14:23:38.534Z,7.43
2022-10-04T14:26:38.912Z,4.72
2022-10-04T14:29:41.318Z,4.00
2022-10-04T14:32:36.822Z,5.65
2022-10-04T14:35:28.060Z,5.75
2022-10-04T14:38:10.469Z,5.65
2022-10-04T14:41:02.456Z,5.55
2022-10-04T14:44:07.233Z,3.85
2022-10-04T14:46:56.037Z,5.22
2022-10-04T14:49:49.748Z,4.28
2022-10-04T14:52:43.053Z,4.50
2022-10-04T14:55:51.055Z,4.32
2022-10-04T14:58:43.212Z,6.28
2022-10-04T15:01:21.343Z,4.47
2022-10-04T15:04:11.788Z,5.78
2022-10-04T15:06:49.300Z,4.70
2022-10-04T15:09:41.140Z,5.20
2022-10-04T15:12:40.698Z,5.65
2022-10-04T15:15:13.598Z,7.63
2022-10-04T15:17:56.134Z,10.00
2022-10-04T15:20:30.992Z,6.05
2022-10-04T15:23:16.024Z,5.78
2022-10-04T15:28:37.222Z,4.90
2022-10-04T15:31:20.469Z,3.95
2022-10-04T15:34:25.574Z,6.45
2022-10-04T15:37:09.990Z,6.93
2022-10-04T15:40:01.757Z,7.93
2022-10-04T15:42:37.209Z,5.35
2022-10-04T15:45:36.851Z,4.90
2022-10-04T15:48:33.626Z,5.82
2022-10-04T15:51:03.959Z,4.85
2022-10-04T15:54:08.165Z,5.38
2022-10-04T15:56:41.426Z,6.95
2022-10-04T15:59:30.301Z,4.30
2022-10-04T16:02:16.454Z,6.00
2022-10-04T16:05:32.675Z,8.23
2022-10-04T16:10:52.391Z,4.93
2022-10-04T16:13:41.786Z,6.35
2022-10-04T16:16:15.938Z,6.60
2022-10-04T16:18:47.689Z,3.05
2022-10-04T16:21:28.768Z,6.63
2022-10-04T16:24:22.010Z,5.10
2022-10-04T16:26:51.858Z,8.60
2022-10-04T16:30:14.502Z,9.63
2022-10-04T16:33:00.193Z,6.28
2022-10-04T16:35:46.486Z,8.27
2022-10-04T16:38:14.522Z,7.35
2022-10-04T16:41:12.034Z,5.80
2022-10-04T16:43:53.667Z,8.43
2022-10-04T16:46:35.044Z,7.07
2022-10-04T16:49:47.965Z,7.40
2022-10-04T16:52:37.133Z,7.55
2022-10-04T16:55:32.218Z,10.30
2022-10-04T16:58:27.558Z,8.45
2022-10-04T17:01:22.705Z,9.57
2022-10-04T17:06:49.199Z,6.95
2022-10-04T17:09:22.940Z,8.68
2022-10-04T17:12:18.866Z,5.60
2022-10-04T17:15:09.545Z,5.30
2022-10-04T17:17:49.025Z,6.65
2022-10-04T17:20:29.748Z,4.65
2022-10-04T17:23:07.939Z,5.32
2022-10-04T17:25:57.787Z,4.28
2022-10-04T17:29:07.151Z,4.82
2022-10-04T17:31:47.527Z,5.65
2022-10-04T17:34:33.616Z,7.70
2022-10-04T17:37:26.896Z,3.85
2022-10-04T17:40:13.767Z,5.93
2022-10-04T17:43:07.193Z,6.18
2022-10-04T17:46:24.813Z,4.13
2022-10-04T17:49:41.451Z,6.07
2022-10-04T17:52:39.961Z,3.22
2022-10-04T17:55:18.625Z,3.00
2022-10-04T17:57:56.058Z,3.72
2022-10-04T18:00:25.954Z,5.97
2022-10-04T18:03:44.417Z,3.60
2022-10-04T18:06:16.781Z,2.38
2022-10-04T18:08:55.846Z,3.42
2022-10-04T18:11:33.380Z,3.30
2022-10-04T18:14:11.536Z,3.25
2022-10-04T18:16:54.958Z,3.10
2022-10-04T18:19:51.301Z,3.00
2022-10-04T18:22:20.968Z,4.45
2022-10-04T18:25:02.908Z,3.08
2022-10-04T18:27:31.126Z,3.92
2022-10-04T18:30:02.517Z,3.42
2022-10-04T18:32:31.690Z,5.13
2022-10-04T18:35:17.808Z,4.63
2022-10-04T18:37:45.014Z,4.25
2022-10-04T18:40:23.269Z,5.55
2022-10-04T18:42:53.655Z,4.35
2022-10-04T18:45:32.705Z,4.57
2022-10-04T18:48:15.234Z,3.40
2022-10-04T18:50:47.487Z,3.95
2022-10-04T18:53:23.976Z,6.63
2022-10-04T18:56:12.174Z,3.80
2022-10-04T18:59:20.563Z,3.38
2022-10-04T19:02:08.033Z,3.00
2022-10-04T19:04:49.921Z,5.00
2022-10-04T19:07:40.196Z,4.10
2022-10-04T19:10:28.118Z,3.40
2022-10-04T19:13:38.448Z,7.15
2022-10-04T19:16:43.747Z,6.55
2022-10-04T19:21:59.988Z,5.57
2022-10-04T19:24:27.093Z,2.35
2022-10-04T19:27:10.314Z,4.03
2022-10-04T19:30:05.348Z,4.85
2022-10-04T19:32:51.162Z,2.90
2022-10-04T19:35:43.223Z,4.38
2022-10-04T19:38:43.036Z,3.88
2022-10-04T19:41:20.900Z,2.25
2022-10-04T19:44:19.407Z,6.45
2022-10-04T19:47:38.349Z,4.22
2022-10-04T19:50:24.169Z,2.60
2022-10-04T19:52:53.609Z,4.35
2022-10-04T19:55:34.675Z,3.63
2022-10-04T19:58:07.860Z,3.60
2022-10-04T20:00:36.307Z,3.60
2022-10-04T20:03:11.370Z,5.10
2022-10-04T20:05:53.508Z,5.15
2022-10-04T20:08:45.665Z,3.78
2022-10-04T20:11:17.159Z,4.50
2022-10-04T20:13:45.041Z,4.05
2022-10-04T20:16:12.360Z,6.03
2022-10-04T20:18:42.183Z,4.78
2022-10-04T20:21:11.650Z,4.25
2022-10-04T20:23:41.210Z,3.95
2022-10-04T20:26:09.131Z,2.88
2022-10-04T20:28:40.346Z,2.90
2022-10-04T20:31:08.430Z,3.78
2022-10-04T20:33:39.272Z,4.10
2022-10-04T20:36:21.814Z,4.22
2022-10-04T20:39:02.022Z,3.72
2022-10-04T20:41:29.389Z,3.45
2022-10-04T20:43:59.283Z,5.10
2022-10-04T20:46:31.952Z,3.22
2022-10-04T20:48:59.492Z,3.75
2022-10-04T20:51:30.328Z,4.50
2022-10-04T20:53:57.684Z,3.72
2022-10-04T20:56:29.069Z,5.18
2022-10-04T20:59:01.315Z,4.03
2022-10-04T21:01:44.339Z,3.88
2022-10-04T21:04:17.217Z,2.15
2022-10-04T21:06:55.181Z,3.83
2022-10-04T21:09:22.775Z,2.83
2022-10-04T21:11:55.727Z,3.22
2022-10-04T21:14:27.822Z,3.63
2022-10-04T21:17:02.696Z,4.70
2022-10-04T21:19:34.138Z,4.18
2022-10-04T21:22:04.153Z,3.08
2022-10-04T21:24:44.143Z,3.10
2022-10-04T21:27:13.151Z,4.82
2022-10-04T21:29:40.334Z,5.88
2022-10-04T21:32:07.478Z,4.32
2022-10-04T21:34:52.533Z,3.97
2022-10-04T21:37:20.819Z,3.90
2022-10-04T21:39:48.219Z,5.13
2022-10-04T21:42:15.748Z,4.30
2022-10-04T21:44:43.410Z,6.05
2022-10-04T21:47:11.337Z,3.47
2022-10-04T21:49:38.514Z,4.32
2022-10-04T21:52:06.580Z,4.78
2022-10-04T21:54:34.224Z,5.05
2022-10-04T21:57:01.742Z,5.60
2022-10-04T21:59:28.985Z,4.68
2022-10-04T22:01:56.256Z,6.32
2022-10-04T22:04:23.420Z,4.55
2022-10-04T22:06:50.744Z,3.92
2022-10-04T22:09:18.071Z,5.03
2022-10-04T22:11:46.185Z,5.90
2022-10-04T22:14:13.470Z,6.00
2022-10-04T22:16:40.800Z,4.78
2022-10-04T22:19:07.898Z,4.50
2022-10-04T22:21:35.056Z,6.65
2022-10-04T22:24:04.478Z,4.95
2022-10-04T22:26:32.348Z,5.30
2022-10-04T22:28:59.565Z,4.57
2022-10-04T22:31:29.317Z,3.35
2022-10-04T22:33:57.032Z,3.97
2022-10-04T22:36:37.446Z,7.03
2022-10-04T22:39:10.614Z,5.15
2022-10-04T22:41:48.444Z,7.00
2022-10-04T22:44:19.397Z,5.70
2022-10-04T22:46:51.177Z,5.13
2022-10-04T22:49:26.480Z,5.22
2022-10-04T22:51:56.492Z,4.32
2022-10-04T22:54:27.998Z,4.80
2022-10-04T22:56:57.013Z,5.70
2022-10-04T22:59:33.572Z,5.45
2022-10-04T23:02:07.275Z,4.38
2022-10-04T23:04:35.863Z,5.53
2022-10-04T23:07:03.398Z,6.53
2022-10-04T23:09:30.730Z,5.90
2022-10-04T23:11:58.143Z,6.35
2022-10-04T23:14:25.412Z,7.00
2022-10-04T23:16:52.744Z,6.35
2022-10-04T23:19:23.399Z,5.93
2022-10-04T23:21:52.349Z,6.40
2022-10-04T23:24:22.051Z,6.03
2022-10-04T23:26:56.745Z,6.90
2022-10-04T23:29:27.077Z,7.07
2022-10-04T23:31:55.860Z,5.88
2022-10-04T23:34:40.884Z,5.53
2022-10-04T23:37:21.081Z,6.35
2022-10-04T23:39:48.968Z,7.35
2022-10-04T23:42:29.819Z,5.88
2022-10-04T23:44:58.783Z,5.43
2022-10-04T23:47:36.204Z,6.13
2022-10-04T23:50:18.454Z,5.40
2022-10-04T23:52:45.758Z,5.70
2022-10-04T23:55:34.957Z,4.05
2022-10-04T23:58:06.486Z,6.88
